LFBT/LDE METAR and TAF weather

Enter ICAO airport designator
Station Type Date Time Source
LFBT METAR 2019/12/09 13:30 UTC NOAA

LFBT 091330Z AUTO 26013KT 9999 BKN020/// BKN026/// BKN068/// ///CB 10/07 Q1025 TEMPO 27020G35KT 4000 SHRA BKN014TCU


Station Type Date Time Source
LFBT Decoded METAR 2019/12/09 13:30 UTC NOAA

Tarbes Ossun Lourdes, France (LFBT) 43-11N 000-00W 363M
Dec 09, 2019 - 08:30 AM EST / 2019.12.09 1330 UTC
Wind: from the W (260 degrees) at 15 MPH (13 KT):0
Visibility: greater than 7 mile(s):0
Sky conditions: mostly cloudy
Weather: Cumulonimbus clouds, towering cumulus clouds observed
Temperature: 50 F (10 C)
Dew Point: 44 F (7 C)
Relative Humidity: 81%
Pressure (altimeter): 30.27 in. Hg (1025 hPa)
ob: LFBT 091330Z AUTO 26013KT 9999 BKN020/// BKN026/// BKN068/// ///CB 10/07 Q1025 TEMPO 27020G35KT 4000 SHRA BKN014TCU
cycle: 13

Station Type Date Time Source
LFBT TAF 2019/12/09 12:42 UTC NOAA

TAF LFBT 091100Z 0912/1012 27015KT 9999 FEW025 SCT050
TEMPO 0912/0916 27020G35KT 4000 SHRA BKN014TCU PROB30
TEMPO 0912/0914 28025G45KT
TEMPO 0916/0921 28015G30KT SHRA BKN012 PROB40
TEMPO 0922/1004 4000 RA BKN012
BECMG 1004/1006 16005KT PROB40
TEMPO 1006/1008 4000 MIFG
FM101000 08005KT CAVOK

Example: see airport list